createdAt,value
2023-04-08T00:01:31.571Z,95472.88
2023-04-08T00:04:00.084Z,95474.44
2023-04-08T00:06:28.475Z,95470.22
2023-04-08T00:08:56.726Z,95472.31
2023-04-08T00:11:25.282Z,95477.09
2023-04-08T00:13:53.691Z,95477.91
2023-04-08T00:16:22.825Z,95465.09
2023-04-08T00:18:52.875Z,95475.63
2023-04-08T00:21:21.549Z,95415.69
2023-04-08T00:23:49.735Z,95468.00
2023-04-08T00:26:18.106Z,95467.56
2023-04-08T00:28:46.994Z,95466.78
2023-04-08T00:31:15.741Z,95464.94
2023-04-08T00:33:44.043Z,95459.41
2023-04-08T00:36:13.745Z,95466.28
2023-04-08T00:38:42.027Z,95459.41
2023-04-08T00:41:10.269Z,95389.72
2023-04-08T00:43:38.534Z,95462.47
2023-04-08T00:46:07.119Z,95470.59
2023-04-08T00:48:35.718Z,95480.25
2023-04-08T00:51:04.622Z,95450.09
2023-04-08T00:53:34.385Z,95468.09
2023-04-08T00:56:02.662Z,95486.50
2023-04-08T00:58:31.343Z,95484.13
2023-04-08T01:01:04.838Z,95486.03
2023-04-08T01:03:51.891Z,95482.59
2023-04-08T01:06:27.206Z,95490.63
2023-04-08T01:08:59.685Z,95445.69
2023-04-08T01:11:31.300Z,95498.94
2023-04-08T01:14:01.124Z,95504.38
2023-04-08T01:16:30.428Z,95512.47
2023-04-08T01:18:58.977Z,95515.25
2023-04-08T01:21:29.143Z,95446.94
2023-04-08T01:24:07.871Z,95506.16
2023-04-08T01:26:38.465Z,95502.69
2023-04-08T01:29:09.263Z,95516.09
2023-04-08T01:31:38.388Z,95515.81
2023-04-08T01:34:07.726Z,95488.47
2023-04-08T01:36:38.550Z,95524.25
2023-04-08T01:39:08.039Z,95524.47
2023-04-08T01:41:38.705Z,95516.97
2023-04-08T01:44:07.967Z,95521.44
2023-04-08T01:46:37.344Z,95496.22
2023-04-08T01:49:07.836Z,95516.09
2023-04-08T01:51:38.749Z,95519.44
2023-04-08T01:54:07.269Z,95519.91
2023-04-08T01:56:42.897Z,95470.50
2023-04-08T01:59:15.794Z,95531.88
2023-04-08T02:01:46.511Z,95527.66
2023-04-08T02:04:15.114Z,95520.19
2023-04-08T02:06:43.962Z,95538.44
2023-04-08T02:09:12.451Z,95538.56
2023-04-08T02:11:42.079Z,95533.41
2023-04-08T02:14:10.446Z,95531.72
2023-04-08T02:16:44.327Z,95493.09
2023-04-08T02:19:17.001Z,95528.88
2023-04-08T02:21:50.362Z,95529.94
2023-04-08T02:24:19.562Z,95522.78
2023-04-08T02:26:52.064Z,95521.59
2023-04-08T02:29:20.715Z,95521.03
2023-04-08T02:31:51.465Z,95523.94
2023-04-08T02:34:22.997Z,95522.59
2023-04-08T02:36:51.825Z,95513.84
2023-04-08T02:39:20.159Z,95517.84
2023-04-08T02:41:49.899Z,95515.78
2023-04-08T02:44:18.218Z,95525.44
2023-04-08T02:46:46.505Z,95526.22
2023-04-08T02:49:14.740Z,95532.53
2023-04-08T02:51:43.003Z,95531.66
2023-04-08T02:54:11.241Z,95529.34
2023-04-08T02:56:39.618Z,95533.66
2023-04-08T02:59:09.344Z,95535.75
2023-04-08T03:01:37.870Z,95536.06
2023-04-08T03:04:06.777Z,95532.53
2023-04-08T03:06:35.044Z,95493.81
2023-04-08T03:09:03.384Z,95520.03
2023-04-08T03:11:31.686Z,95529.44
2023-04-08T03:14:00.120Z,95535.03
2023-04-08T03:16:29.841Z,95538.78
2023-04-08T03:18:58.066Z,95473.38
2023-04-08T03:21:27.181Z,95535.91
2023-04-08T03:23:55.456Z,95532.19
2023-04-08T03:26:23.712Z,95535.84
2023-04-08T03:28:53.775Z,95524.38
2023-04-08T03:31:22.366Z,95529.84
2023-04-08T03:33:52.020Z,95530.28
2023-04-08T03:36:22.112Z,95531.44
2023-04-08T03:38:50.651Z,95527.91
2023-04-08T03:41:19.146Z,95525.06
2023-04-08T03:43:47.528Z,95535.63
2023-04-08T03:46:15.852Z,95536.16
2023-04-08T03:48:44.187Z,95533.06
2023-04-08T03:51:13.931Z,95518.88
2023-04-08T03:53:42.143Z,95540.78
2023-04-08T03:56:10.539Z,95481.06
2023-04-08T03:58:38.869Z,95462.41
2023-04-08T04:01:07.130Z,95536.53
2023-04-08T04:03:36.018Z,95530.25
2023-04-08T04:06:04.438Z,95534.44
2023-04-08T04:08:34.190Z,95535.44
2023-04-08T04:11:02.475Z,95530.00
2023-04-08T04:13:30.712Z,95534.97
2023-04-08T04:15:59.083Z,95529.34
2023-04-08T04:18:27.576Z,95539.50
2023-04-08T04:20:55.939Z,95532.72
2023-04-08T04:23:25.870Z,95532.19
2023-04-08T04:25:55.683Z,95519.25
2023-04-08T04:28:24.017Z,95539.66
2023-04-08T04:30:53.319Z,95488.09
2023-04-08T04:33:22.369Z,95533.13
2023-04-08T04:35:50.803Z,95533.00
2023-04-08T04:38:19.162Z,95531.16
2023-04-08T04:40:47.423Z,95531.91
2023-04-08T04:43:17.094Z,95534.88
2023-04-08T04:45:45.497Z,95534.31
2023-04-08T04:48:13.840Z,95535.09
2023-04-08T04:50:42.208Z,95534.56
2023-04-08T04:53:10.691Z,95459.88
2023-04-08T04:55:39.374Z,95360.13
2023-04-08T04:58:07.737Z,95522.72
2023-04-08T05:00:37.398Z,95539.06
2023-04-08T05:03:06.101Z,95536.78
2023-04-08T05:05:34.507Z,95535.94
2023-04-08T05:08:02.859Z,95542.47
2023-04-08T05:10:31.307Z,95547.28
2023-04-08T05:12:59.647Z,95537.63
2023-04-08T05:15:27.993Z,95539.31
2023-04-08T05:17:57.692Z,95542.69
2023-04-08T05:20:26.159Z,95546.13
2023-04-08T05:22:54.531Z,95536.28
2023-04-08T05:25:22.849Z,95543.00
2023-04-08T05:27:51.428Z,95524.41
2023-04-08T05:30:20.015Z,95542.13
2023-04-08T05:32:48.315Z,95545.69
2023-04-08T05:35:18.086Z,95477.97
2023-04-08T05:37:46.481Z,95518.31
2023-04-08T05:40:14.889Z,95549.25
2023-04-08T05:42:43.686Z,95553.38
2023-04-08T05:45:12.616Z,95543.72
2023-04-08T05:47:43.776Z,95553.53
2023-04-08T05:50:12.937Z,95551.19
2023-04-08T05:52:45.964Z,95563.31
2023-04-08T05:55:15.326Z,95555.03
2023-04-08T05:57:43.643Z,95562.00
2023-04-08T06:00:12.693Z,95511.00
2023-04-08T06:02:41.220Z,95555.13
2023-04-08T06:05:10.561Z,95553.88
2023-04-08T06:07:38.863Z,95547.53
2023-04-08T06:10:09.864Z,95554.69
2023-04-08T06:12:39.646Z,95514.34
2023-04-08T06:15:09.646Z,95486.81
2023-04-08T06:17:39.133Z,95484.78
2023-04-08T06:20:09.518Z,95537.34
2023-04-08T06:22:38.066Z,95537.47
2023-04-08T06:25:07.231Z,95520.84
2023-04-08T06:27:36.976Z,95525.31
2023-04-08T06:30:07.328Z,95532.00
2023-04-08T06:32:35.783Z,95530.41
2023-04-08T06:35:04.149Z,95526.63
2023-04-08T06:37:34.727Z,95507.81
2023-04-08T06:40:03.171Z,95510.91
2023-04-08T06:42:31.749Z,95528.22
2023-04-08T06:45:01.474Z,95521.13
2023-04-08T06:47:29.888Z,95519.59
2023-04-08T06:49:58.422Z,95445.03
2023-04-08T06:52:26.666Z,95503.69
2023-04-08T06:54:54.900Z,95513.34
2023-04-08T06:57:23.217Z,95469.72
2023-04-08T06:59:51.427Z,95516.06
2023-04-08T07:02:22.928Z,95367.63
2023-04-08T07:04:51.320Z,95508.69
2023-04-08T07:07:19.588Z,95504.25
2023-04-08T07:09:47.913Z,95510.28
2023-04-08T07:12:16.113Z,95513.56
2023-04-08T07:14:44.550Z,95493.69
2023-04-08T07:17:12.919Z,95496.28
2023-04-08T07:19:44.260Z,95507.78
2023-04-08T07:22:12.629Z,95509.97
2023-04-08T07:24:43.017Z,95515.00
2023-04-08T07:27:11.360Z,95487.28
2023-04-08T07:29:39.687Z,95511.28
2023-04-08T07:32:08.641Z,95515.50
2023-04-08T07:34:37.111Z,95504.25
2023-04-08T07:37:06.813Z,95510.78
2023-04-08T07:39:35.131Z,95468.06
2023-04-08T07:42:03.492Z,95508.38
2023-04-08T07:44:31.776Z,95515.03
2023-04-08T07:47:00.109Z,95496.00
2023-04-08T07:49:28.426Z,95507.34
2023-04-08T07:51:57.714Z,95504.38
2023-04-08T07:54:34.425Z,95494.59
2023-04-08T07:57:02.923Z,95493.19
2023-04-08T07:59:31.364Z,95496.94
2023-04-08T08:01:59.707Z,95494.75
2023-04-08T08:04:28.382Z,95499.56
2023-04-08T08:06:56.906Z,95499.94
2023-04-08T08:09:25.443Z,95497.94
2023-04-08T08:11:55.242Z,95508.97
2023-04-08T08:14:23.557Z,95503.72
2023-04-08T08:16:52.809Z,95513.25
2023-04-08T08:19:39.361Z,95507.97
2023-04-08T08:22:07.596Z,95510.06
2023-04-08T08:24:35.915Z,95507.13
2023-04-08T08:27:06.627Z,95456.91
2023-04-08T08:29:34.996Z,95498.19
2023-04-08T08:32:03.887Z,95504.16
2023-04-08T08:34:32.482Z,95475.59
2023-04-08T08:37:00.815Z,95498.19
2023-04-08T08:39:29.084Z,95506.75
2023-04-08T08:41:57.396Z,95494.47
2023-04-08T08:44:27.265Z,95509.06
2023-04-08T08:46:55.696Z,95498.56
2023-04-08T08:49:24.284Z,95499.31
2023-04-08T08:51:56.197Z,95496.47
2023-04-08T08:54:24.537Z,95489.81
2023-04-08T08:56:53.201Z,95497.00
2023-04-08T08:59:21.530Z,95468.38
2023-04-08T09:01:51.438Z,95498.16
2023-04-08T09:04:22.625Z,95491.34
2023-04-08T09:06:52.737Z,95494.09
2023-04-08T09:09:21.333Z,95477.69
2023-04-08T09:11:49.778Z,95497.69
2023-04-08T09:14:22.530Z,95492.25
2023-04-08T09:16:53.020Z,95491.94
2023-04-08T09:19:21.468Z,95489.25
2023-04-08T09:22:07.068Z,95437.97
2023-04-08T09:24:35.806Z,95478.34
2023-04-08T09:27:04.414Z,95470.78
2023-04-08T09:29:35.808Z,95464.19
2023-04-08T09:32:07.116Z,95364.56
2023-04-08T09:34:35.419Z,95456.72
2023-04-08T09:37:03.640Z,95469.69
2023-04-08T09:39:32.574Z,95438.41
2023-04-08T09:42:04.258Z,95452.41
2023-04-08T09:44:34.725Z,95456.09
2023-04-08T09:47:10.335Z,95459.00
2023-04-08T09:49:43.570Z,95463.19
2023-04-08T09:52:15.900Z,95459.81
2023-04-08T09:54:54.413Z,95459.25
2023-04-08T09:57:28.901Z,95464.16
2023-04-08T10:00:02.202Z,95386.13
2023-04-08T10:02:42.512Z,95412.41
2023-04-08T10:05:14.677Z,95447.03
2023-04-08T10:07:43.665Z,95462.44
2023-04-08T10:10:12.677Z,95457.72
2023-04-08T10:12:41.518Z,95453.63
2023-04-08T10:15:27.802Z,95462.38
2023-04-08T10:18:19.352Z,95449.34
2023-04-08T10:20:49.398Z,95462.00
2023-04-08T10:23:18.864Z,95465.44
2023-04-08T10:25:48.622Z,95459.19
2023-04-08T10:28:27.320Z,95447.59
2023-04-08T10:30:57.626Z,95446.06
2023-04-08T10:33:38.494Z,95441.44
2023-04-08T10:36:13.587Z,95453.50
2023-04-08T10:38:42.851Z,95392.97
2023-04-08T10:41:14.361Z,95436.72
2023-04-08T10:43:42.890Z,95434.41
2023-04-08T10:46:12.953Z,95437.22
2023-04-08T10:48:42.723Z,95435.66
2023-04-08T10:51:11.577Z,95435.44
2023-04-08T10:53:41.340Z,95428.44
2023-04-08T10:56:13.257Z,95428.78
2023-04-08T10:58:50.322Z,95432.44
2023-04-08T11:01:19.306Z,95423.75
2023-04-08T11:03:49.206Z,95413.31
2023-04-08T11:06:19.568Z,95411.69
2023-04-08T11:08:47.909Z,95415.38
2023-04-08T11:11:16.473Z,95416.97
2023-04-08T11:13:53.301Z,95410.00
2023-04-08T11:16:23.683Z,95366.09
2023-04-08T11:18:54.677Z,95401.84
2023-04-08T11:21:25.723Z,95404.13
2023-04-08T11:23:55.300Z,95398.50
2023-04-08T11:26:24.203Z,95390.94
2023-04-08T11:28:53.568Z,95390.41
2023-04-08T11:31:24.891Z,95371.97
2023-04-08T11:33:56.932Z,95372.78
2023-04-08T11:36:26.185Z,95386.28
2023-04-08T11:38:56.462Z,95389.31
2023-04-08T11:41:24.857Z,95341.19
2023-04-08T11:43:54.478Z,95305.25
2023-04-08T11:46:23.215Z,95386.34
2023-04-08T11:49:03.538Z,95378.31
2023-04-08T11:51:31.866Z,95326.38
2023-04-08T11:54:00.263Z,95355.84
2023-04-08T11:56:30.730Z,95374.47
2023-04-08T11:58:59.087Z,95375.09
2023-04-08T12:01:28.368Z,95370.41
2023-04-08T12:04:01.497Z,95370.53
2023-04-08T12:06:31.900Z,95355.03
2023-04-08T12:09:00.192Z,95342.00
2023-04-08T12:11:28.566Z,95361.91
2023-04-08T12:13:57.432Z,95354.00
2023-04-08T12:16:25.804Z,95361.56
2023-04-08T12:18:54.251Z,95335.75
2023-04-08T12:21:24.942Z,95351.69
2023-04-08T12:23:54.634Z,95349.09
2023-04-08T12:26:22.956Z,95345.91
2023-04-08T12:28:51.276Z,95325.94
2023-04-08T12:31:19.719Z,95347.09
2023-04-08T12:33:48.203Z,95315.09
2023-04-08T12:36:17.428Z,95332.31
2023-04-08T12:38:46.054Z,95338.63
2023-04-08T12:41:15.766Z,95314.72
2023-04-08T12:43:44.051Z,95339.84
2023-04-08T12:46:12.964Z,95333.53
2023-04-08T12:48:41.285Z,95323.84
2023-04-08T12:51:10.547Z,95327.06
2023-04-08T12:53:38.905Z,95310.19
2023-04-08T12:56:08.095Z,95329.22
2023-04-08T12:58:37.792Z,95288.63
2023-04-08T13:01:06.454Z,95323.06
2023-04-08T13:03:36.325Z,95335.00
2023-04-08T13:06:04.858Z,95329.84
2023-04-08T13:08:33.170Z,95330.06
2023-04-08T13:11:01.509Z,95327.25
2023-04-08T13:13:30.403Z,95322.53
2023-04-08T13:16:00.422Z,94694.97
2023-04-08T13:18:28.837Z,95336.41
2023-04-08T13:20:58.258Z,95345.34
2023-04-08T13:23:26.613Z,95347.38
2023-04-08T13:25:54.929Z,95359.31
2023-04-08T13:28:23.287Z,95364.59
2023-04-08T13:30:51.970Z,95372.28
2023-04-08T13:33:22.355Z,95377.50
2023-04-08T13:35:50.789Z,95346.44
2023-04-08T13:38:19.256Z,95376.06
2023-04-08T13:40:49.142Z,95383.88
2023-04-08T13:43:17.614Z,95376.66
2023-04-08T13:45:46.411Z,95375.59
2023-04-08T13:48:14.957Z,95380.06
2023-04-08T13:50:44.718Z,95378.13
2023-04-08T13:53:13.001Z,95347.28
2023-04-08T13:55:41.352Z,95360.91
2023-04-08T13:58:21.077Z,95377.13
2023-04-08T14:00:52.662Z,95336.78
2023-04-08T14:03:21.083Z,95372.38
2023-04-08T14:05:51.551Z,95380.47
2023-04-08T14:08:25.452Z,95378.16
2023-04-08T14:10:54.235Z,95382.25
2023-04-08T14:13:22.686Z,95351.31
2023-04-08T14:15:52.365Z,95359.50
2023-04-08T14:18:20.904Z,95380.66
2023-04-08T14:20:50.630Z,95369.16
2023-04-08T14:23:18.931Z,95382.94
2023-04-08T14:25:47.272Z,95342.72
2023-04-08T14:28:15.732Z,95380.72
2023-04-08T14:30:44.113Z,95376.44
2023-04-08T14:33:12.664Z,95378.47
2023-04-08T14:35:41.034Z,95366.88
2023-04-08T14:38:10.750Z,95383.69
2023-04-08T14:40:39.099Z,95378.59
2023-04-08T14:43:07.615Z,95380.16
2023-04-08T14:45:35.924Z,95382.25
2023-04-08T14:48:04.293Z,95390.56
2023-04-08T14:50:32.669Z,95368.75
2023-04-08T14:53:01.291Z,95386.25
2023-04-08T14:55:32.550Z,95389.09
2023-04-08T14:58:01.297Z,95388.00
2023-04-08T15:00:29.818Z,95396.28
2023-04-08T15:02:58.165Z,95398.56
2023-04-08T15:05:26.735Z,95266.91
2023-04-08T15:07:55.590Z,95371.25
2023-04-08T15:10:23.979Z,95374.06
2023-04-08T15:12:53.701Z,95391.66
2023-04-08T15:15:22.057Z,95382.53
2023-04-08T15:17:52.103Z,95379.22
2023-04-08T15:20:20.884Z,95366.91
2023-04-08T15:22:49.264Z,95370.97
2023-04-08T15:25:17.669Z,95356.31
2023-04-08T15:27:45.994Z,95381.25
2023-04-08T15:30:17.318Z,95377.81
2023-04-08T15:32:45.920Z,95386.97
2023-04-08T15:35:14.210Z,95382.28
2023-04-08T15:37:42.515Z,95387.00
2023-04-08T15:40:11.537Z,95371.19
2023-04-08T15:42:39.795Z,95386.47
2023-04-08T15:45:09.029Z,95380.47
2023-04-08T15:47:38.881Z,95393.78
2023-04-08T15:50:08.366Z,95388.94
2023-04-08T15:52:36.731Z,95378.31
2023-04-08T15:55:05.381Z,95398.72
2023-04-08T15:57:33.747Z,95392.28
2023-04-08T16:00:02.145Z,95324.00
2023-04-08T16:02:30.633Z,95398.69
2023-04-08T16:05:01.033Z,95398.94
2023-04-08T16:07:29.360Z,95391.16
2023-04-08T16:09:57.626Z,95397.13
2023-04-08T16:12:26.205Z,95389.66
2023-04-08T16:14:54.599Z,95397.00
2023-04-08T16:17:23.318Z,95402.44
2023-04-08T16:19:53.232Z,95397.38
2023-04-08T16:22:23.005Z,95404.75
2023-04-08T16:24:53.229Z,95403.63
2023-04-08T16:27:21.575Z,95387.16
2023-04-08T16:29:49.888Z,95416.91
2023-04-08T16:32:18.254Z,95406.19
2023-04-08T16:34:46.901Z,95414.28
2023-04-08T16:37:15.320Z,95412.09
2023-04-08T16:39:45.042Z,95416.03
2023-04-08T16:42:13.303Z,95412.22
2023-04-08T16:44:42.043Z,95370.72
2023-04-08T16:47:10.437Z,95416.44
2023-04-08T16:49:38.789Z,95401.59
2023-04-08T16:52:09.704Z,95417.00
2023-04-08T16:54:38.128Z,95365.97
2023-04-08T16:57:08.214Z,95407.75
2023-04-08T16:59:36.524Z,95412.00
2023-04-08T17:02:05.100Z,95421.88
2023-04-08T17:04:33.633Z,95429.94
2023-04-08T17:07:01.965Z,95430.00
2023-04-08T17:09:31.232Z,95427.53
2023-04-08T17:11:59.628Z,95434.69
2023-04-08T17:14:29.594Z,95438.06
2023-04-08T17:16:57.937Z,95429.03
2023-04-08T17:19:26.314Z,95439.41
2023-04-08T17:21:54.612Z,95448.47
2023-04-08T17:24:23.020Z,95449.03
2023-04-08T17:26:51.407Z,95455.66
2023-04-08T17:29:19.731Z,95453.81
2023-04-08T17:31:49.623Z,95458.06
2023-04-08T17:34:18.187Z,95454.56
2023-04-08T17:36:46.424Z,95464.06
2023-04-08T17:39:14.975Z,95412.44
2023-04-08T17:41:44.697Z,95418.81
2023-04-08T17:44:14.181Z,95464.88
2023-04-08T17:46:42.762Z,95474.69
2023-04-08T17:49:16.284Z,95463.84
2023-04-08T17:51:44.606Z,95474.19
2023-04-08T17:54:13.056Z,95470.22
2023-04-08T17:56:43.371Z,95475.81
2023-04-08T17:59:12.947Z,95480.03
2023-04-08T18:01:41.427Z,95401.31
2023-04-08T18:04:12.672Z,95486.63
2023-04-08T18:06:41.366Z,95455.28
2023-04-08T18:09:09.639Z,95478.69
2023-04-08T18:11:37.973Z,95499.50
2023-04-08T18:14:07.039Z,95503.44
2023-04-08T18:16:35.414Z,95503.88
2023-04-08T18:19:03.640Z,95504.44
2023-04-08T18:21:33.879Z,95509.66
2023-04-08T18:24:02.184Z,95500.34
2023-04-08T18:26:31.498Z,95523.06
2023-04-08T18:28:59.940Z,95523.84
2023-04-08T18:31:28.203Z,95527.53
2023-04-08T18:33:56.994Z,95512.94
2023-04-08T18:36:26.647Z,95524.38
2023-04-08T18:38:56.541Z,95504.69
2023-04-08T18:41:25.237Z,95539.22
2023-04-08T18:43:53.751Z,95527.97
2023-04-08T18:46:23.057Z,95497.69
2023-04-08T18:48:51.463Z,95547.66
2023-04-08T18:51:20.141Z,95550.56
2023-04-08T18:53:48.675Z,95537.31
2023-04-08T18:56:20.226Z,95516.88
2023-04-08T18:58:48.810Z,95550.06
2023-04-08T19:01:17.606Z,95546.88
2023-04-08T19:03:46.105Z,95553.22
2023-04-08T19:06:17.405Z,95514.50
2023-04-08T19:08:48.255Z,95555.34
2023-04-08T19:11:18.453Z,95559.06
2023-04-08T19:13:47.122Z,95558.25
2023-04-08T19:16:15.748Z,95547.91
2023-04-08T19:18:44.133Z,95556.38
2023-04-08T19:21:12.882Z,95561.69
2023-04-08T19:23:41.531Z,95561.69
2023-04-08T19:26:13.405Z,95503.13
2023-04-08T19:28:44.733Z,95548.44
2023-04-08T19:31:20.274Z,95568.34
2023-04-08T19:33:53.797Z,95560.13
2023-04-08T19:36:22.190Z,95567.28
2023-04-08T19:38:50.522Z,95567.53
2023-04-08T19:41:18.814Z,95566.22
2023-04-08T19:43:48.606Z,95565.97
2023-04-08T19:46:17.169Z,95564.13
2023-04-08T19:48:45.653Z,95567.81
2023-04-08T19:51:20.350Z,95534.13
2023-04-08T19:53:49.868Z,95567.53
2023-04-08T19:56:18.403Z,95565.44
2023-04-08T19:58:46.690Z,95552.94
2023-04-08T20:01:16.958Z,95560.66
2023-04-08T20:03:50.400Z,95483.16
2023-04-08T20:06:19.337Z,95570.13
2023-04-08T20:08:50.193Z,95568.56
2023-04-08T20:11:18.878Z,95576.03
2023-04-08T20:13:47.822Z,95533.31
2023-04-08T20:16:21.261Z,95565.41
2023-04-08T20:18:49.838Z,95568.59
2023-04-08T20:21:18.406Z,95566.47
2023-04-08T20:23:46.740Z,95577.06
2023-04-08T20:26:17.820Z,95493.00
2023-04-08T20:28:46.358Z,95567.81
2023-04-08T20:31:14.935Z,95559.03
2023-04-08T20:33:45.678Z,95567.81
2023-04-08T20:36:14.208Z,95571.19
2023-04-08T20:38:42.862Z,95569.09
2023-04-08T20:41:11.507Z,95567.53
2023-04-08T20:43:40.544Z,95578.94
2023-04-08T20:46:09.328Z,95577.06
2023-04-08T20:48:37.635Z,95570.72
2023-04-08T20:51:07.231Z,95535.13
2023-04-08T20:53:35.756Z,95574.41
2023-04-08T20:56:04.941Z,95570.72
2023-04-08T20:58:33.228Z,95511.03
2023-04-08T21:01:01.729Z,95565.94
2023-04-08T21:03:30.312Z,95572.28
2023-04-08T21:05:58.788Z,95564.34
2023-04-08T21:08:28.540Z,95560.63
2023-04-08T21:10:56.774Z,95569.88
2023-04-08T21:13:25.116Z,95560.56
2023-04-08T21:15:53.393Z,95569.59
2023-04-08T21:18:21.618Z,95514.88
2023-04-08T21:20:50.282Z,95572.25
2023-04-08T21:23:24.078Z,95578.59
2023-04-08T21:25:53.826Z,95561.88
2023-04-08T21:28:22.143Z,95556.75
2023-04-08T21:30:50.570Z,95566.78
2023-04-08T21:33:18.897Z,95571.13
2023-04-08T21:35:47.210Z,95570.81
2023-04-08T21:38:16.242Z,95562.06
2023-04-08T21:40:44.525Z,95557.97
2023-04-08T21:43:14.302Z,95560.03
2023-04-08T21:45:42.611Z,95554.88
2023-04-08T21:48:10.900Z,95551.22
2023-04-08T21:50:39.734Z,95549.47
2023-04-08T21:53:08.075Z,95553.00
2023-04-08T21:55:36.333Z,95548.53
2023-04-08T21:58:04.610Z,95539.13
2023-04-08T22:00:34.368Z,95553.91
2023-04-08T22:03:02.880Z,95549.78
2023-04-08T22:05:33.063Z,95551.56
2023-04-08T22:08:02.237Z,95539.03
2023-04-08T22:10:30.628Z,95551.81
2023-04-08T22:12:58.919Z,95549.38
2023-04-08T22:15:27.167Z,95564.03
2023-04-08T22:17:57.416Z,95557.34
2023-04-08T22:20:26.000Z,95555.50
2023-04-08T22:22:54.283Z,95561.34
2023-04-08T22:25:22.542Z,95558.72
2023-04-08T22:27:50.752Z,95560.94
2023-04-08T22:30:19.103Z,95564.03
2023-04-08T22:32:47.364Z,95559.38
2023-04-08T22:35:17.312Z,95559.69
2023-04-08T22:37:45.691Z,95534.47
2023-04-08T22:40:14.253Z,95553.31
2023-04-08T22:42:42.447Z,95498.31
2023-04-08T22:45:11.530Z,95558.09
2023-04-08T22:47:39.736Z,95508.41
2023-04-08T22:50:08.902Z,95554.06
2023-04-08T22:52:38.582Z,95552.97
2023-04-08T22:55:07.746Z,95543.97
2023-04-08T22:57:36.075Z,95556.09
2023-04-08T23:00:06.094Z,95480.13
2023-04-08T23:02:35.116Z,95552.38
2023-04-08T23:05:03.439Z,95512.22
2023-04-08T23:07:31.776Z,95512.75
2023-04-08T23:10:01.547Z,95557.50
2023-04-08T23:12:29.791Z,95549.97
2023-04-08T23:14:58.226Z,95552.91
2023-04-08T23:17:26.543Z,95441.84
2023-04-08T23:19:54.819Z,95544.28
2023-04-08T23:22:23.232Z,95481.34
2023-04-08T23:24:51.482Z,95539.00
2023-04-08T23:27:21.164Z,95537.75
2023-04-08T23:29:49.396Z,95488.38
2023-04-08T23:32:17.788Z,95513.84
2023-04-08T23:34:46.175Z,95536.06
2023-04-08T23:37:14.458Z,95502.00
2023-04-08T23:39:42.676Z,95492.44
2023-04-08T23:42:11.063Z,95506.22
2023-04-08T23:44:40.760Z,95540.25
2023-04-08T23:47:09.041Z,95546.63
2023-04-08T23:49:37.313Z,95539.16
2023-04-08T23:52:06.323Z,95539.16
2023-04-08T23:54:34.605Z,95525.81
2023-04-08T23:57:02.877Z,95540.59
2023-04-08T23:59:31.192Z,95548.66
